Terminal Aerodrome Forecast
Issued by NWS St Louis, MO

Home | Current Version | Previous Version | Text Only | Print | Product List | Glossary On
Versions: 1 2 3 4 5 6 7 8 9 10 11 12 13 14 15 16 17 18 19 20 21 22 23 24 25 26 27
991
FTUS43 KLSX 250259 AAA
TAFSTL
TAF AMD
KSTL 250259Z 2503/2606 19010KT P6SM FEW250
     FM250600 VRB04KT P6SM VCTS BKN060CB
     FM251100 36005KT P6SM SCT025 BKN050
     FM251600 01005KT P6SM BKN050
     FM260100 03006KT P6SM SCT250=

USA.gov is the U.S. government's official web portal to all federal, state and local government web resources and services.